sensor_id;sensor_type;location;lat;lon;timestamp;P1;durP1;ratioP1;P2;durP2;ratioP2
3278;SDS011;1651;50.940;6.888;2023-03-01T00:01:02;11.10;;;7.78;;
3278;SDS011;1651;50.940;6.888;2023-03-01T00:03:28;7.20;;;6.47;;
3278;SDS011;1651;50.940;6.888;2023-03-01T00:05:55;9.25;;;6.70;;
3278;SDS011;1651;50.940;6.888;2023-03-01T00:08:21;10.32;;;6.97;;
3278;SDS011;1651;50.940;6.888;2023-03-01T00:10:47;10.20;;;6.80;;
3278;SDS011;1651;50.940;6.888;2023-03-01T00:13:13;10.43;;;6.20;;
3278;SDS011;1651;50.940;6.888;2023-03-01T00:15:40;11.40;;;7.10;;
3278;SDS011;1651;50.940;6.888;2023-03-01T00:18:06;11.52;;;7.05;;
3278;SDS011;1651;50.940;6.888;2023-03-01T00:20:33;8.82;;;6.90;;
3278;SDS011;1651;50.940;6.888;2023-03-01T00:22:59;8.23;;;6.07;;
3278;SDS011;1651;50.940;6.888;2023-03-01T00:25:25;9.20;;;7.40;;
3278;SDS011;1651;50.940;6.888;2023-03-01T00:27:51;9.10;;;6.23;;
3278;SDS011;1651;50.940;6.888;2023-03-01T00:30:17;9.13;;;6.70;;
3278;SDS011;1651;50.940;6.888;2023-03-01T00:32:42;11.82;;;7.30;;
3278;SDS011;1651;50.940;6.888;2023-03-01T00:35:08;8.15;;;7.05;;
3278;SDS011;1651;50.940;6.888;2023-03-01T00:37:35;7.85;;;6.13;;
3278;SDS011;1651;50.940;6.888;2023-03-01T00:40:00;9.03;;;6.70;;
3278;SDS011;1651;50.940;6.888;2023-03-01T00:42:26;8.10;;;6.60;;
3278;SDS011;1651;50.940;6.888;2023-03-01T00:44:52;11.40;;;7.50;;
3278;SDS011;1651;50.940;6.888;2023-03-01T00:47:18;8.35;;;6.10;;
3278;SDS011;1651;50.940;6.888;2023-03-01T00:49:44;8.73;;;6.80;;
3278;SDS011;1651;50.940;6.888;2023-03-01T00:52:10;9.93;;;6.37;;
3278;SDS011;1651;50.940;6.888;2023-03-01T00:54:36;11.07;;;6.80;;
3278;SDS011;1651;50.940;6.888;2023-03-01T00:57:02;11.70;;;7.17;;
3278;SDS011;1651;50.940;6.888;2023-03-01T00:59:28;8.70;;;7.30;;
3278;SDS011;1651;50.940;6.888;2023-03-01T01:01:54;8.05;;;6.32;;
3278;SDS011;1651;50.940;6.888;2023-03-01T01:04:21;10.70;;;7.30;;
3278;SDS011;1651;50.940;6.888;2023-03-01T01:06:47;11.77;;;6.60;;
3278;SDS011;1651;50.940;6.888;2023-03-01T01:09:14;8.97;;;7.50;;
3278;SDS011;1651;50.940;6.888;2023-03-01T01:11:48;12.07;;;6.35;;
3278;SDS011;1651;50.940;6.888;2023-03-01T01:14:14;7.80;;;6.65;;
3278;SDS011;1651;50.940;6.888;2023-03-01T01:16:40;9.57;;;6.82;;
3278;SDS011;1651;50.940;6.888;2023-03-01T01:19:06;17.08;;;8.63;;
3278;SDS011;1651;50.940;6.888;2023-03-01T01:21:32;9.50;;;7.05;;
3278;SDS011;1651;50.940;6.888;2023-03-01T01:23:58;11.60;;;6.90;;
3278;SDS011;1651;50.940;6.888;2023-03-01T01:26:26;8.80;;;6.18;;
3278;SDS011;1651;50.940;6.888;2023-03-01T01:28:52;8.73;;;6.55;;
3278;SDS011;1651;50.940;6.888;2023-03-01T01:31:19;9.43;;;6.55;;
3278;SDS011;1651;50.940;6.888;2023-03-01T01:33:46;10.88;;;7.13;;
3278;SDS011;1651;50.940;6.888;2023-03-01T01:36:12;8.60;;;6.80;;
3278;SDS011;1651;50.940;6.888;2023-03-01T01:38:38;10.03;;;7.43;;
3278;SDS011;1651;50.940;6.888;2023-03-01T01:41:05;11.52;;;7.70;;
3278;SDS011;1651;50.940;6.888;2023-03-01T01:43:35;12.35;;;7.68;;
3278;SDS011;1651;50.940;6.888;2023-03-01T01:46:07;13.05;;;7.90;;
3278;SDS011;1651;50.940;6.888;2023-03-01T01:48:45;9.30;;;7.88;;
3278;SDS011;1651;50.940;6.888;2023-03-01T01:51:13;10.35;;;7.30;;
3278;SDS011;1651;50.940;6.888;2023-03-01T01:53:39;13.40;;;8.32;;
3278;SDS011;1651;50.940;6.888;2023-03-01T01:56:06;18.52;;;7.95;;
3278;SDS011;1651;50.940;6.888;2023-03-01T01:58:33;12.70;;;7.63;;
3278;SDS011;1651;50.940;6.888;2023-03-01T02:00:59;12.27;;;8.00;;
3278;SDS011;1651;50.940;6.888;2023-03-01T02:03:27;8.90;;;6.60;;
3278;SDS011;1651;50.940;6.888;2023-03-01T02:08:26;8.90;;;6.72;;
3278;SDS011;1651;50.940;6.888;2023-03-01T02:10:54;10.10;;;7.13;;
3278;SDS011;1651;50.940;6.888;2023-03-01T02:13:22;12.60;;;8.30;;
3278;SDS011;1651;50.940;6.888;2023-03-01T02:15:48;9.70;;;7.13;;
3278;SDS011;1651;50.940;6.888;2023-03-01T02:18:15;10.18;;;8.10;;
3278;SDS011;1651;50.940;6.888;2023-03-01T02:20:51;11.13;;;7.28;;
3278;SDS011;1651;50.940;6.888;2023-03-01T02:23:20;11.30;;;7.63;;
3278;SDS011;1651;50.940;6.888;2023-03-01T02:25:47;9.15;;;7.30;;
3278;SDS011;1651;50.940;6.888;2023-03-01T02:30:50;12.05;;;8.48;;
3278;SDS011;1651;50.940;6.888;2023-03-01T02:33:35;10.73;;;7.20;;
3278;SDS011;1651;50.940;6.888;2023-03-01T02:36:09;12.93;;;8.63;;
3278;SDS011;1651;50.940;6.888;2023-03-01T02:38:38;9.70;;;7.07;;
3278;SDS011;1651;50.940;6.888;2023-03-01T02:41:04;13.80;;;8.48;;
3278;SDS011;1651;50.940;6.888;2023-03-01T02:43:32;10.32;;;7.05;;
3278;SDS011;1651;50.940;6.888;2023-03-01T02:46:02;11.25;;;7.40;;
3278;SDS011;1651;50.940;6.888;2023-03-01T02:48:38;11.23;;;8.55;;
3278;SDS011;1651;50.940;6.888;2023-03-01T02:51:05;10.60;;;7.35;;
3278;SDS011;1651;50.940;6.888;2023-03-01T02:53:56;11.45;;;8.00;;
3278;SDS011;1651;50.940;6.888;2023-03-01T02:56:25;11.88;;;7.47;;
3278;SDS011;1651;50.940;6.888;2023-03-01T02:58:51;11.70;;;8.27;;
3278;SDS011;1651;50.940;6.888;2023-03-01T03:01:19;13.30;;;8.80;;
3278;SDS011;1651;50.940;6.888;2023-03-01T03:03:45;12.65;;;8.25;;
3278;SDS011;1651;50.940;6.888;2023-03-01T03:06:11;14.90;;;8.13;;
3278;SDS011;1651;50.940;6.888;2023-03-01T03:08:38;11.10;;;8.00;;
3278;SDS011;1651;50.940;6.888;2023-03-01T03:11:06;13.48;;;8.18;;
3278;SDS011;1651;50.940;6.888;2023-03-01T03:13:32;11.05;;;8.38;;
3278;SDS011;1651;50.940;6.888;2023-03-01T03:15:58;15.57;;;8.40;;
3278;SDS011;1651;50.940;6.888;2023-03-01T03:18:24;12.48;;;7.75;;
3278;SDS011;1651;50.940;6.888;2023-03-01T03:20:52;9.10;;;7.15;;
3278;SDS011;1651;50.940;6.888;2023-03-01T03:23:18;10.50;;;6.35;;
3278;SDS011;1651;50.940;6.888;2023-03-01T03:25:45;14.38;;;8.48;;
3278;SDS011;1651;50.940;6.888;2023-03-01T03:28:13;11.02;;;7.30;;
3278;SDS011;1651;50.940;6.888;2023-03-01T03:30:40;12.63;;;8.52;;
3278;SDS011;1651;50.940;6.888;2023-03-01T03:33:07;13.90;;;8.82;;
3278;SDS011;1651;50.940;6.888;2023-03-01T03:35:34;11.48;;;7.47;;
3278;SDS011;1651;50.940;6.888;2023-03-01T03:38:05;12.00;;;7.70;;
3278;SDS011;1651;50.940;6.888;2023-03-01T03:43:00;11.68;;;8.18;;
3278;SDS011;1651;50.940;6.888;2023-03-01T03:45:27;12.00;;;8.32;;
3278;SDS011;1651;50.940;6.888;2023-03-01T03:47:55;12.10;;;7.38;;
3278;SDS011;1651;50.940;6.888;2023-03-01T03:50:20;10.95;;;7.80;;
3278;SDS011;1651;50.940;6.888;2023-03-01T03:52:46;10.35;;;7.45;;
3278;SDS011;1651;50.940;6.888;2023-03-01T03:55:12;13.23;;;8.50;;
3278;SDS011;1651;50.940;6.888;2023-03-01T03:57:39;9.97;;;7.00;;
3278;SDS011;1651;50.940;6.888;2023-03-01T04:00:08;16.42;;;9.35;;
3278;SDS011;1651;50.940;6.888;2023-03-01T04:02:38;14.15;;;8.05;;
3278;SDS011;1651;50.940;6.888;2023-03-01T04:05:04;10.50;;;6.90;;
3278;SDS011;1651;50.940;6.888;2023-03-01T04:07:30;10.05;;;7.40;;
3278;SDS011;1651;50.940;6.888;2023-03-01T04:09:56;12.73;;;7.93;;
3278;SDS011;1651;50.940;6.888;2023-03-01T04:12:22;11.27;;;8.17;;
3278;SDS011;1651;50.940;6.888;2023-03-01T04:14:48;8.90;;;7.37;;
3278;SDS011;1651;50.940;6.888;2023-03-01T04:17:14;12.63;;;8.77;;
3278;SDS011;1651;50.940;6.888;2023-03-01T04:19:41;9.32;;;6.90;;
3278;SDS011;1651;50.940;6.888;2023-03-01T04:22:08;9.38;;;7.70;;
3278;SDS011;1651;50.940;6.888;2023-03-01T04:24:36;13.57;;;8.70;;
3278;SDS011;1651;50.940;6.888;2023-03-01T04:27:02;14.95;;;8.93;;
3278;SDS011;1651;50.940;6.888;2023-03-01T04:29:28;11.87;;;8.07;;
3278;SDS011;1651;50.940;6.888;2023-03-01T04:31:55;13.70;;;8.98;;
3278;SDS011;1651;50.940;6.888;2023-03-01T04:34:21;13.85;;;8.85;;
3278;SDS011;1651;50.940;6.888;2023-03-01T04:36:46;16.67;;;9.57;;
3278;SDS011;1651;50.940;6.888;2023-03-01T04:41:41;12.15;;;8.73;;
3278;SDS011;1651;50.940;6.888;2023-03-01T04:44:10;14.20;;;9.23;;
3278;SDS011;1651;50.940;6.888;2023-03-01T04:46:37;17.48;;;9.95;;
3278;SDS011;1651;50.940;6.888;2023-03-01T04:49:03;11.45;;;7.95;;
3278;SDS011;1651;50.940;6.888;2023-03-01T04:51:30;15.75;;;9.95;;
3278;SDS011;1651;50.940;6.888;2023-03-01T04:53:57;13.57;;;9.82;;
3278;SDS011;1651;50.940;6.888;2023-03-01T04:56:25;15.55;;;9.85;;
3278;SDS011;1651;50.940;6.888;2023-03-01T04:58:52;12.57;;;8.15;;
3278;SDS011;1651;50.940;6.888;2023-03-01T05:01:19;14.50;;;9.73;;
3278;SDS011;1651;50.940;6.888;2023-03-01T05:03:48;13.73;;;8.25;;
3278;SDS011;1651;50.940;6.888;2023-03-01T05:06:15;14.95;;;7.63;;
3278;SDS011;1651;50.940;6.888;2023-03-01T05:08:41;12.88;;;9.35;;
3278;SDS011;1651;50.940;6.888;2023-03-01T05:11:09;11.15;;;8.43;;
3278;SDS011;1651;50.940;6.888;2023-03-01T05:13:36;17.40;;;8.63;;
3278;SDS011;1651;50.940;6.888;2023-03-01T05:16:03;11.57;;;8.65;;
3278;SDS011;1651;50.940;6.888;2023-03-01T05:18:32;14.10;;;8.30;;
3278;SDS011;1651;50.940;6.888;2023-03-01T05:21:09;16.90;;;9.40;;
3278;SDS011;1651;50.940;6.888;2023-03-01T05:23:36;12.27;;;7.93;;
3278;SDS011;1651;50.940;6.888;2023-03-01T05:26:02;11.75;;;8.73;;
3278;SDS011;1651;50.940;6.888;2023-03-01T05:28:29;14.07;;;8.63;;
3278;SDS011;1651;50.940;6.888;2023-03-01T05:30:55;13.20;;;8.05;;
3278;SDS011;1651;50.940;6.888;2023-03-01T05:33:21;16.27;;;9.00;;
3278;SDS011;1651;50.940;6.888;2023-03-01T05:35:48;16.48;;;10.23;;
3278;SDS011;1651;50.940;6.888;2023-03-01T05:38:15;11.95;;;7.70;;
3278;SDS011;1651;50.940;6.888;2023-03-01T05:40:42;16.02;;;8.95;;
3278;SDS011;1651;50.940;6.888;2023-03-01T05:43:12;15.98;;;8.48;;
3278;SDS011;1651;50.940;6.888;2023-03-01T05:45:40;14.98;;;8.70;;
3278;SDS011;1651;50.940;6.888;2023-03-01T05:48:07;13.10;;;8.32;;
3278;SDS011;1651;50.940;6.888;2023-03-01T05:50:36;12.75;;;9.07;;
3278;SDS011;1651;50.940;6.888;2023-03-01T05:55:37;12.88;;;8.50;;
3278;SDS011;1651;50.940;6.888;2023-03-01T05:58:18;14.20;;;9.63;;
3278;SDS011;1651;50.940;6.888;2023-03-01T06:03:20;14.88;;;10.02;;
3278;SDS011;1651;50.940;6.888;2023-03-01T06:05:46;12.82;;;9.52;;
3278;SDS011;1651;50.940;6.888;2023-03-01T06:08:12;13.60;;;9.00;;
3278;SDS011;1651;50.940;6.888;2023-03-01T06:10:39;12.95;;;9.00;;
3278;SDS011;1651;50.940;6.888;2023-03-01T06:13:05;16.10;;;8.93;;
3278;SDS011;1651;50.940;6.888;2023-03-01T06:15:31;13.32;;;8.73;;
3278;SDS011;1651;50.940;6.888;2023-03-01T06:17:57;12.35;;;9.20;;
3278;SDS011;1651;50.940;6.888;2023-03-01T06:20:24;13.40;;;8.65;;
3278;SDS011;1651;50.940;6.888;2023-03-01T06:22:51;22.00;;;9.95;;
3278;SDS011;1651;50.940;6.888;2023-03-01T06:25:18;13.13;;;9.00;;
3278;SDS011;1651;50.940;6.888;2023-03-01T06:27:45;13.45;;;9.35;;
3278;SDS011;1651;50.940;6.888;2023-03-01T06:30:12;11.75;;;7.93;;
3278;SDS011;1651;50.940;6.888;2023-03-01T06:32:39;13.13;;;9.07;;
3278;SDS011;1651;50.940;6.888;2023-03-01T06:35:13;22.50;;;9.68;;
3278;SDS011;1651;50.940;6.888;2023-03-01T06:38:00;14.48;;;8.88;;
3278;SDS011;1651;50.940;6.888;2023-03-01T06:40:54;15.07;;;9.82;;
3278;SDS011;1651;50.940;6.888;2023-03-01T06:43:22;15.63;;;10.30;;
3278;SDS011;1651;50.940;6.888;2023-03-01T06:45:48;16.65;;;9.80;;
3278;SDS011;1651;50.940;6.888;2023-03-01T06:48:14;20.38;;;10.95;;
3278;SDS011;1651;50.940;6.888;2023-03-01T06:50:40;21.30;;;9.52;;
3278;SDS011;1651;50.940;6.888;2023-03-01T06:53:06;13.05;;;10.10;;
3278;SDS011;1651;50.940;6.888;2023-03-01T06:55:33;19.23;;;10.90;;
3278;SDS011;1651;50.940;6.888;2023-03-01T06:58:00;17.75;;;12.15;;
3278;SDS011;1651;50.940;6.888;2023-03-01T07:00:29;18.80;;;11.00;;
3278;SDS011;1651;50.940;6.888;2023-03-01T07:02:57;17.02;;;10.30;;
3278;SDS011;1651;50.940;6.888;2023-03-01T07:05:23;14.63;;;9.25;;
3278;SDS011;1651;50.940;6.888;2023-03-01T07:07:49;16.90;;;10.87;;
3278;SDS011;1651;50.940;6.888;2023-03-01T07:10:15;15.30;;;10.40;;
3278;SDS011;1651;50.940;6.888;2023-03-01T07:12:41;14.65;;;9.57;;
3278;SDS011;1651;50.940;6.888;2023-03-01T07:15:08;18.87;;;10.57;;
3278;SDS011;1651;50.940;6.888;2023-03-01T07:17:35;15.52;;;11.35;;
3278;SDS011;1651;50.940;6.888;2023-03-01T07:20:01;13.35;;;10.68;;
3278;SDS011;1651;50.940;6.888;2023-03-01T07:22:27;20.98;;;12.27;;
3278;SDS011;1651;50.940;6.888;2023-03-01T07:24:53;20.10;;;12.70;;
3278;SDS011;1651;50.940;6.888;2023-03-01T07:27:19;17.20;;;12.17;;
3278;SDS011;1651;50.940;6.888;2023-03-01T07:29:45;23.30;;;12.50;;
3278;SDS011;1651;50.940;6.888;2023-03-01T07:32:12;21.40;;;12.45;;
3278;SDS011;1651;50.940;6.888;2023-03-01T07:34:38;19.73;;;10.95;;
3278;SDS011;1651;50.940;6.888;2023-03-01T07:37:04;20.37;;;12.30;;
3278;SDS011;1651;50.940;6.888;2023-03-01T07:39:30;18.75;;;12.90;;
3278;SDS011;1651;50.940;6.888;2023-03-01T07:41:56;16.17;;;11.25;;
3278;SDS011;1651;50.940;6.888;2023-03-01T07:44:23;18.20;;;11.65;;
3278;SDS011;1651;50.940;6.888;2023-03-01T07:46:49;22.45;;;12.32;;
3278;SDS011;1651;50.940;6.888;2023-03-01T07:49:17;23.08;;;9.73;;
3278;SDS011;1651;50.940;6.888;2023-03-01T07:54:12;20.42;;;11.35;;
3278;SDS011;1651;50.940;6.888;2023-03-01T07:56:38;17.00;;;11.77;;
3278;SDS011;1651;50.940;6.888;2023-03-01T07:59:05;20.58;;;12.40;;
3278;SDS011;1651;50.940;6.888;2023-03-01T08:01:31;20.33;;;13.67;;
3278;SDS011;1651;50.940;6.888;2023-03-01T08:03:57;14.83;;;10.30;;
3278;SDS011;1651;50.940;6.888;2023-03-01T08:06:24;18.23;;;12.45;;
3278;SDS011;1651;50.940;6.888;2023-03-01T08:08:50;22.02;;;12.55;;
3278;SDS011;1651;50.940;6.888;2023-03-01T08:11:16;20.13;;;12.38;;
3278;SDS011;1651;50.940;6.888;2023-03-01T08:13:43;16.00;;;12.30;;
3278;SDS011;1651;50.940;6.888;2023-03-01T08:16:13;20.33;;;11.75;;
3278;SDS011;1651;50.940;6.888;2023-03-01T08:18:39;19.25;;;13.20;;
3278;SDS011;1651;50.940;6.888;2023-03-01T08:21:09;14.90;;;10.97;;
3278;SDS011;1651;50.940;6.888;2023-03-01T08:23:36;16.00;;;10.43;;
3278;SDS011;1651;50.940;6.888;2023-03-01T08:26:06;16.67;;;11.67;;
3278;SDS011;1651;50.940;6.888;2023-03-01T08:28:32;14.80;;;9.87;;
3278;SDS011;1651;50.940;6.888;2023-03-01T08:30:58;14.17;;;11.13;;
3278;SDS011;1651;50.940;6.888;2023-03-01T08:33:25;12.20;;;10.90;;
3278;SDS011;1651;50.940;6.888;2023-03-01T08:36:01;15.73;;;11.63;;
3278;SDS011;1651;50.940;6.888;2023-03-01T08:38:27;14.30;;;11.43;;
3278;SDS011;1651;50.940;6.888;2023-03-01T08:40:54;13.77;;;12.37;;
3278;SDS011;1651;50.940;6.888;2023-03-01T08:43:21;13.20;;;11.90;;
3278;SDS011;1651;50.940;6.888;2023-03-01T08:45:49;14.20;;;11.13;;
3278;SDS011;1651;50.940;6.888;2023-03-01T08:48:16;13.83;;;11.03;;
3278;SDS011;1651;50.940;6.888;2023-03-01T08:50:42;20.03;;;15.93;;
3278;SDS011;1651;50.940;6.888;2023-03-01T08:53:08;17.20;;;15.40;;
3278;SDS011;1651;50.940;6.888;2023-03-01T08:55:34;13.30;;;11.47;;
3278;SDS011;1651;50.940;6.888;2023-03-01T08:58:00;12.43;;;11.17;;
3278;SDS011;1651;50.940;6.888;2023-03-01T09:00:28;13.33;;;10.83;;
3278;SDS011;1651;50.940;6.888;2023-03-01T09:02:55;13.60;;;11.50;;
3278;SDS011;1651;50.940;6.888;2023-03-01T09:05:22;13.37;;;10.70;;
3278;SDS011;1651;50.940;6.888;2023-03-01T09:07:48;14.17;;;11.57;;
3278;SDS011;1651;50.940;6.888;2023-03-01T09:10:14;9.30;;;7.07;;
3278;SDS011;1651;50.940;6.888;2023-03-01T09:12:40;13.33;;;11.10;;
3278;SDS011;1651;50.940;6.888;2023-03-01T09:15:06;13.37;;;11.07;;
3278;SDS011;1651;50.940;6.888;2023-03-01T09:17:33;10.40;;;8.57;;
3278;SDS011;1651;50.940;6.888;2023-03-01T09:19:58;6.33;;;5.47;;
3278;SDS011;1651;50.940;6.888;2023-03-01T09:22:25;13.20;;;10.17;;
3278;SDS011;1651;50.940;6.888;2023-03-01T09:24:51;12.13;;;10.50;;
3278;SDS011;1651;50.940;6.888;2023-03-01T09:27:16;14.60;;;9.20;;
3278;SDS011;1651;50.940;6.888;2023-03-01T09:29:44;10.17;;;8.60;;
3278;SDS011;1651;50.940;6.888;2023-03-01T09:32:11;10.67;;;9.23;;
3278;SDS011;1651;50.940;6.888;2023-03-01T09:34:37;15.70;;;11.65;;
3278;SDS011;1651;50.940;6.888;2023-03-01T09:37:22;12.30;;;8.93;;
3278;SDS011;1651;50.940;6.888;2023-03-01T09:39:48;14.70;;;9.63;;
3278;SDS011;1651;50.940;6.888;2023-03-01T09:42:14;12.10;;;10.02;;
3278;SDS011;1651;50.940;6.888;2023-03-01T09:47:17;12.93;;;9.57;;
3278;SDS011;1651;50.940;6.888;2023-03-01T09:49:44;13.45;;;10.30;;
3278;SDS011;1651;50.940;6.888;2023-03-01T09:52:24;12.85;;;9.13;;
3278;SDS011;1651;50.940;6.888;2023-03-01T09:54:54;17.45;;;10.32;;
3278;SDS011;1651;50.940;6.888;2023-03-01T09:57:24;9.68;;;7.22;;
3278;SDS011;1651;50.940;6.888;2023-03-01T10:00:11;12.40;;;9.80;;
3278;SDS011;1651;50.940;6.888;2023-03-01T10:02:45;13.05;;;8.48;;
3278;SDS011;1651;50.940;6.888;2023-03-01T10:05:25;10.10;;;6.55;;
3278;SDS011;1651;50.940;6.888;2023-03-01T10:10:43;16.70;;;4.78;;
3278;SDS011;1651;50.940;6.888;2023-03-01T10:13:37;12.05;;;6.90;;
3278;SDS011;1651;50.940;6.888;2023-03-01T10:16:43;12.05;;;6.30;;
3278;SDS011;1651;50.940;6.888;2023-03-01T10:19:41;10.77;;;7.05;;
3278;SDS011;1651;50.940;6.888;2023-03-01T10:24:51;16.10;;;9.48;;
3278;SDS011;1651;50.940;6.888;2023-03-01T10:27:22;12.02;;;7.38;;
3278;SDS011;1651;50.940;6.888;2023-03-01T10:29:50;13.07;;;5.90;;
3278;SDS011;1651;50.940;6.888;2023-03-01T10:32:18;17.23;;;10.30;;
3278;SDS011;1651;50.940;6.888;2023-03-01T10:34:50;13.82;;;7.75;;
3278;SDS011;1651;50.940;6.888;2023-03-01T10:37:24;13.88;;;10.13;;
3278;SDS011;1651;50.940;6.888;2023-03-01T10:50:19;11.70;;;9.52;;
3278;SDS011;1651;50.940;6.888;2023-03-01T10:52:58;10.75;;;8.77;;
3278;SDS011;1651;50.940;6.888;2023-03-01T10:55:35;12.13;;;6.78;;
3278;SDS011;1651;50.940;6.888;2023-03-01T10:58:19;14.05;;;10.15;;
3278;SDS011;1651;50.940;6.888;2023-03-01T11:13:35;13.77;;;9.45;;
3278;SDS011;1651;50.940;6.888;2023-03-01T11:16:02;12.57;;;8.85;;
3278;SDS011;1651;50.940;6.888;2023-03-01T11:18:29;13.80;;;9.88;;
3278;SDS011;1651;50.940;6.888;2023-03-01T11:20:56;12.95;;;8.20;;
3278;SDS011;1651;50.940;6.888;2023-03-01T11:26:01;12.00;;;9.20;;
3278;SDS011;1651;50.940;6.888;2023-03-01T11:28:28;15.13;;;9.05;;
3278;SDS011;1651;50.940;6.888;2023-03-01T11:31:07;13.68;;;9.90;;
3278;SDS011;1651;50.940;6.888;2023-03-01T11:45:05;13.25;;;9.40;;
3278;SDS011;1651;50.940;6.888;2023-03-01T11:50:33;11.43;;;8.75;;
3278;SDS011;1651;50.940;6.888;2023-03-01T11:53:05;14.57;;;10.07;;
3278;SDS011;1651;50.940;6.888;2023-03-01T12:03:53;13.85;;;9.30;;
3278;SDS011;1651;50.940;6.888;2023-03-01T12:06:28;9.30;;;7.50;;
3278;SDS011;1651;50.940;6.888;2023-03-01T12:11:54;14.27;;;10.90;;
3278;SDS011;1651;50.940;6.888;2023-03-01T12:28:00;12.55;;;9.18;;
3278;SDS011;1651;50.940;6.888;2023-03-01T12:45:21;10.20;;;8.93;;
3278;SDS011;1651;50.940;6.888;2023-03-01T13:05:19;13.25;;;9.70;;
3278;SDS011;1651;50.940;6.888;2023-03-01T13:07:55;12.10;;;8.25;;
3278;SDS011;1651;50.940;6.888;2023-03-01T13:10:29;13.35;;;9.70;;
3278;SDS011;1651;50.940;6.888;2023-03-01T13:13:01;13.02;;;8.55;;
3278;SDS011;1651;50.940;6.888;2023-03-01T13:15:29;15.60;;;9.20;;
3278;SDS011;1651;50.940;6.888;2023-03-01T13:18:03;14.48;;;8.70;;
3278;SDS011;1651;50.940;6.888;2023-03-01T13:23:47;15.68;;;8.98;;
3278;SDS011;1651;50.940;6.888;2023-03-01T13:31:05;13.85;;;8.65;;
3278;SDS011;1651;50.940;6.888;2023-03-01T13:35:59;12.95;;;7.80;;
3278;SDS011;1651;50.940;6.888;2023-03-01T13:38:55;14.88;;;8.30;;
3278;SDS011;1651;50.940;6.888;2023-03-01T13:44:12;9.88;;;8.80;;
3278;SDS011;1651;50.940;6.888;2023-03-01T13:46:39;10.00;;;7.18;;
3278;SDS011;1651;50.940;6.888;2023-03-01T13:49:09;13.35;;;7.80;;
3278;SDS011;1651;50.940;6.888;2023-03-01T13:51:38;9.90;;;8.07;;
3278;SDS011;1651;50.940;6.888;2023-03-01T13:54:04;12.90;;;8.57;;
3278;SDS011;1651;50.940;6.888;2023-03-01T13:56:36;11.00;;;8.45;;
3278;SDS011;1651;50.940;6.888;2023-03-01T13:59:05;11.10;;;8.57;;
3278;SDS011;1651;50.940;6.888;2023-03-01T14:01:32;11.85;;;7.43;;
3278;SDS011;1651;50.940;6.888;2023-03-01T14:03:59;12.80;;;9.15;;
3278;SDS011;1651;50.940;6.888;2023-03-01T14:06:27;9.95;;;8.05;;
3278;SDS011;1651;50.940;6.888;2023-03-01T14:09:04;13.10;;;8.65;;
3278;SDS011;1651;50.940;6.888;2023-03-01T14:19:35;11.90;;;8.90;;
3278;SDS011;1651;50.940;6.888;2023-03-01T14:25:32;12.93;;;8.77;;
3278;SDS011;1651;50.940;6.888;2023-03-01T14:27:34;11.43;;;9.45;;
3278;SDS011;1651;50.940;6.888;2023-03-01T14:30:02;12.77;;;9.23;;
3278;SDS011;1651;50.940;6.888;2023-03-01T14:32:31;14.40;;;8.43;;
3278;SDS011;1651;50.940;6.888;2023-03-01T14:34:58;10.97;;;7.97;;
3278;SDS011;1651;50.940;6.888;2023-03-01T14:39:53;10.60;;;7.43;;
3278;SDS011;1651;50.940;6.888;2023-03-01T14:42:22;6.80;;;5.50;;
3278;SDS011;1651;50.940;6.888;2023-03-01T14:44:50;9.55;;;7.40;;
3278;SDS011;1651;50.940;6.888;2023-03-01T14:47:34;13.00;;;8.80;;
3278;SDS011;1651;50.940;6.888;2023-03-01T14:53:18;9.73;;;6.70;;
3278;SDS011;1651;50.940;6.888;2023-03-01T14:55:48;9.73;;;8.35;;
3278;SDS011;1651;50.940;6.888;2023-03-01T14:58:18;10.40;;;8.23;;
3278;SDS011;1651;50.940;6.888;2023-03-01T15:00:49;12.27;;;7.55;;
3278;SDS011;1651;50.940;6.888;2023-03-01T15:05:50;13.57;;;8.43;;
3278;SDS011;1651;50.940;6.888;2023-03-01T15:08:35;15.80;;;9.15;;
3278;SDS011;1651;50.940;6.888;2023-03-01T15:11:03;12.00;;;7.80;;
3278;SDS011;1651;50.940;6.888;2023-03-01T15:13:34;10.75;;;7.38;;
3278;SDS011;1651;50.940;6.888;2023-03-01T15:16:02;8.35;;;7.25;;
3278;SDS011;1651;50.940;6.888;2023-03-01T15:18:30;9.02;;;6.38;;
3278;SDS011;1651;50.940;6.888;2023-03-01T15:20:56;15.63;;;7.68;;
3278;SDS011;1651;50.940;6.888;2023-03-01T15:23:33;11.48;;;8.13;;
3278;SDS011;1651;50.940;6.888;2023-03-01T15:26:00;7.88;;;6.07;;
3278;SDS011;1651;50.940;6.888;2023-03-01T15:28:27;16.58;;;8.18;;
3278;SDS011;1651;50.940;6.888;2023-03-01T15:30:55;13.60;;;8.82;;
3278;SDS011;1651;50.940;6.888;2023-03-01T15:35:49;9.47;;;7.57;;
3278;SDS011;1651;50.940;6.888;2023-03-01T15:43:45;9.75;;;8.60;;
3278;SDS011;1651;50.940;6.888;2023-03-01T15:49:26;10.13;;;7.63;;
3278;SDS011;1651;50.940;6.888;2023-03-01T15:51:54;12.10;;;7.32;;
3278;SDS011;1651;50.940;6.888;2023-03-01T15:54:22;9.32;;;5.85;;
3278;SDS011;1651;50.940;6.888;2023-03-01T15:56:53;9.52;;;6.50;;
3278;SDS011;1651;50.940;6.888;2023-03-01T15:59:30;10.80;;;6.35;;
3278;SDS011;1651;50.940;6.888;2023-03-01T16:01:57;10.82;;;7.20;;
3278;SDS011;1651;50.940;6.888;2023-03-01T16:04:24;6.30;;;4.47;;
3278;SDS011;1651;50.940;6.888;2023-03-01T16:06:50;9.77;;;7.32;;
3278;SDS011;1651;50.940;6.888;2023-03-01T16:15:44;9.10;;;6.82;;
3278;SDS011;1651;50.940;6.888;2023-03-01T16:18:11;13.75;;;7.22;;
3278;SDS011;1651;50.940;6.888;2023-03-01T16:20:41;9.15;;;6.72;;
3278;SDS011;1651;50.940;6.888;2023-03-01T16:23:10;8.85;;;7.40;;
3278;SDS011;1651;50.940;6.888;2023-03-01T16:28:41;8.20;;;6.70;;
3278;SDS011;1651;50.940;6.888;2023-03-01T16:31:08;4.43;;;3.25;;
3278;SDS011;1651;50.940;6.888;2023-03-01T16:33:35;9.20;;;7.05;;
3278;SDS011;1651;50.940;6.888;2023-03-01T16:36:06;7.60;;;6.10;;
3278;SDS011;1651;50.940;6.888;2023-03-01T16:38:32;10.05;;;6.55;;
3278;SDS011;1651;50.940;6.888;2023-03-01T16:41:00;8.55;;;6.80;;
3278;SDS011;1651;50.940;6.888;2023-03-01T16:43:27;10.55;;;6.40;;
3278;SDS011;1651;50.940;6.888;2023-03-01T16:46:17;9.20;;;5.70;;
3278;SDS011;1651;50.940;6.888;2023-03-01T16:48:53;8.60;;;5.72;;
3278;SDS011;1651;50.940;6.888;2023-03-01T16:51:31;13.43;;;7.18;;
3278;SDS011;1651;50.940;6.888;2023-03-01T16:54:01;9.27;;;6.88;;
3278;SDS011;1651;50.940;6.888;2023-03-01T16:56:29;13.15;;;6.50;;
3278;SDS011;1651;50.940;6.888;2023-03-01T16:58:57;11.43;;;7.05;;
3278;SDS011;1651;50.940;6.888;2023-03-01T17:01:23;11.95;;;7.60;;
3278;SDS011;1651;50.940;6.888;2023-03-01T17:03:51;11.27;;;6.43;;
3278;SDS011;1651;50.940;6.888;2023-03-01T17:06:18;7.75;;;6.50;;
3278;SDS011;1651;50.940;6.888;2023-03-01T17:08:45;11.50;;;7.28;;
3278;SDS011;1651;50.940;6.888;2023-03-01T17:11:13;8.50;;;6.10;;
3278;SDS011;1651;50.940;6.888;2023-03-01T17:13:42;11.13;;;6.60;;
3278;SDS011;1651;50.940;6.888;2023-03-01T17:16:10;9.38;;;6.70;;
3278;SDS011;1651;50.940;6.888;2023-03-01T17:18:37;12.40;;;7.53;;
3278;SDS011;1651;50.940;6.888;2023-03-01T17:21:09;11.30;;;7.57;;
3278;SDS011;1651;50.940;6.888;2023-03-01T17:23:48;9.50;;;6.20;;
3278;SDS011;1651;50.940;6.888;2023-03-01T17:26:17;10.20;;;7.20;;
3278;SDS011;1651;50.940;6.888;2023-03-01T17:28:52;11.63;;;6.55;;
3278;SDS011;1651;50.940;6.888;2023-03-01T17:31:21;9.40;;;6.18;;
3278;SDS011;1651;50.940;6.888;2023-03-01T17:34:05;8.95;;;6.72;;
3278;SDS011;1651;50.940;6.888;2023-03-01T17:36:34;9.02;;;5.75;;
3278;SDS011;1651;50.940;6.888;2023-03-01T17:39:05;9.95;;;6.78;;
3278;SDS011;1651;50.940;6.888;2023-03-01T17:41:31;13.70;;;8.27;;
3278;SDS011;1651;50.940;6.888;2023-03-01T17:43:58;11.10;;;7.55;;
3278;SDS011;1651;50.940;6.888;2023-03-01T17:46:24;12.10;;;5.68;;
3278;SDS011;1651;50.940;6.888;2023-03-01T17:48:51;8.85;;;7.25;;
3278;SDS011;1651;50.940;6.888;2023-03-01T17:51:18;9.05;;;6.38;;
3278;SDS011;1651;50.940;6.888;2023-03-01T17:53:44;7.63;;;4.50;;
3278;SDS011;1651;50.940;6.888;2023-03-01T17:56:22;8.07;;;5.63;;
3278;SDS011;1651;50.940;6.888;2023-03-01T17:58:58;11.93;;;7.00;;
3278;SDS011;1651;50.940;6.888;2023-03-01T18:01:24;9.07;;;7.15;;
3278;SDS011;1651;50.940;6.888;2023-03-01T18:04:14;8.98;;;6.05;;
3278;SDS011;1651;50.940;6.888;2023-03-01T18:09:27;10.10;;;6.97;;
3278;SDS011;1651;50.940;6.888;2023-03-01T18:11:55;12.30;;;7.47;;